sensor_id;sensor_type;location;lat;lon;timestamp;P1;durP1;ratioP1;P2;durP2;ratioP2
20391;SDS011;10355;53.688;10.078;2023-04-15T00:02:18;3.28;;;1.90;;
20391;SDS011;10355;53.688;10.078;2023-04-15T00:05:01;4.40;;;1.73;;
20391;SDS011;10355;53.688;10.078;2023-04-15T00:07:44;2.63;;;1.90;;
20391;SDS011;10355;53.688;10.078;2023-04-15T00:10:27;2.95;;;2.10;;
20391;SDS011;10355;53.688;10.078;2023-04-15T00:13:11;3.33;;;1.88;;
20391;SDS011;10355;53.688;10.078;2023-04-15T00:15:54;2.65;;;1.90;;
20391;SDS011;10355;53.688;10.078;2023-04-15T00:18:36;2.95;;;1.90;;
20391;SDS011;10355;53.688;10.078;2023-04-15T00:21:19;2.92;;;1.70;;
20391;SDS011;10355;53.688;10.078;2023-04-15T00:24:02;2.65;;;1.88;;
20391;SDS011;10355;53.688;10.078;2023-04-15T00:26:44;2.67;;;1.70;;
20391;SDS011;10355;53.688;10.078;2023-04-15T00:29:28;4.28;;;2.00;;
20391;SDS011;10355;53.688;10.078;2023-04-15T00:32:11;3.22;;;1.80;;
20391;SDS011;10355;53.688;10.078;2023-04-15T00:34:54;2.40;;;1.70;;
20391;SDS011;10355;53.688;10.078;2023-04-15T00:37:37;2.97;;;1.83;;
20391;SDS011;10355;53.688;10.078;2023-04-15T00:40:22;3.95;;;2.10;;
20391;SDS011;10355;53.688;10.078;2023-04-15T00:43:05;2.63;;;1.92;;
20391;SDS011;10355;53.688;10.078;2023-04-15T00:45:49;2.35;;;1.90;;
20391;SDS011;10355;53.688;10.078;2023-04-15T00:48:33;2.35;;;1.70;;
20391;SDS011;10355;53.688;10.078;2023-04-15T00:51:16;4.93;;;1.92;;
20391;SDS011;10355;53.688;10.078;2023-04-15T00:53:59;2.03;;;1.42;;
20391;SDS011;10355;53.688;10.078;2023-04-15T00:56:41;3.85;;;2.05;;
20391;SDS011;10355;53.688;10.078;2023-04-15T00:59:24;2.28;;;1.80;;
20391;SDS011;10355;53.688;10.078;2023-04-15T01:02:09;3.85;;;2.00;;
20391;SDS011;10355;53.688;10.078;2023-04-15T01:04:51;3.78;;;2.30;;
20391;SDS011;10355;53.688;10.078;2023-04-15T01:07:34;3.88;;;2.08;;
20391;SDS011;10355;53.688;10.078;2023-04-15T01:10:17;3.78;;;2.55;;
20391;SDS011;10355;53.688;10.078;2023-04-15T01:12:59;3.55;;;2.30;;
20391;SDS011;10355;53.688;10.078;2023-04-15T01:15:42;2.72;;;2.00;;
20391;SDS011;10355;53.688;10.078;2023-04-15T01:18:26;3.63;;;2.47;;
20391;SDS011;10355;53.688;10.078;2023-04-15T01:21:09;3.10;;;2.47;;
20391;SDS011;10355;53.688;10.078;2023-04-15T01:23:52;3.30;;;2.45;;
20391;SDS011;10355;53.688;10.078;2023-04-15T01:26:38;3.25;;;2.28;;
20391;SDS011;10355;53.688;10.078;2023-04-15T01:29:23;3.53;;;2.13;;
20391;SDS011;10355;53.688;10.078;2023-04-15T01:32:06;3.90;;;2.45;;
20391;SDS011;10355;53.688;10.078;2023-04-15T01:34:48;2.95;;;2.17;;
20391;SDS011;10355;53.688;10.078;2023-04-15T01:37:31;3.40;;;2.53;;
20391;SDS011;10355;53.688;10.078;2023-04-15T01:40:14;3.92;;;2.70;;
20391;SDS011;10355;53.688;10.078;2023-04-15T01:42:58;3.38;;;2.50;;
20391;SDS011;10355;53.688;10.078;2023-04-15T01:45:40;4.00;;;2.53;;
20391;SDS011;10355;53.688;10.078;2023-04-15T01:48:23;2.88;;;2.33;;
20391;SDS011;10355;53.688;10.078;2023-04-15T01:51:06;3.40;;;2.42;;
20391;SDS011;10355;53.688;10.078;2023-04-15T01:53:49;4.03;;;2.60;;
20391;SDS011;10355;53.688;10.078;2023-04-15T01:56:32;3.45;;;2.53;;
20391;SDS011;10355;53.688;10.078;2023-04-15T01:59:18;4.28;;;2.67;;
20391;SDS011;10355;53.688;10.078;2023-04-15T02:02:01;3.90;;;2.60;;
20391;SDS011;10355;53.688;10.078;2023-04-15T02:04:43;3.95;;;2.53;;
20391;SDS011;10355;53.688;10.078;2023-04-15T02:07:26;4.38;;;2.90;;
20391;SDS011;10355;53.688;10.078;2023-04-15T02:10:12;4.60;;;2.83;;
20391;SDS011;10355;53.688;10.078;2023-04-15T02:12:56;3.88;;;3.00;;
20391;SDS011;10355;53.688;10.078;2023-04-15T02:15:46;5.80;;;3.58;;
20391;SDS011;10355;53.688;10.078;2023-04-15T02:18:32;4.68;;;3.15;;
20391;SDS011;10355;53.688;10.078;2023-04-15T02:21:15;5.90;;;3.78;;
20391;SDS011;10355;53.688;10.078;2023-04-15T02:23:59;4.57;;;3.20;;
20391;SDS011;10355;53.688;10.078;2023-04-15T02:26:42;5.40;;;3.50;;
20391;SDS011;10355;53.688;10.078;2023-04-15T02:29:25;4.72;;;3.60;;
20391;SDS011;10355;53.688;10.078;2023-04-15T02:32:09;6.40;;;3.35;;
20391;SDS011;10355;53.688;10.078;2023-04-15T02:34:52;5.78;;;3.60;;
20391;SDS011;10355;53.688;10.078;2023-04-15T02:37:35;5.57;;;3.70;;
20391;SDS011;10355;53.688;10.078;2023-04-15T02:40:23;7.00;;;4.20;;
20391;SDS011;10355;53.688;10.078;2023-04-15T02:43:05;7.15;;;4.28;;
20391;SDS011;10355;53.688;10.078;2023-04-15T02:45:48;6.28;;;4.35;;
20391;SDS011;10355;53.688;10.078;2023-04-15T02:48:33;8.38;;;5.22;;
20391;SDS011;10355;53.688;10.078;2023-04-15T02:51:17;9.35;;;5.32;;
20391;SDS011;10355;53.688;10.078;2023-04-15T02:54:00;10.15;;;5.75;;
20391;SDS011;10355;53.688;10.078;2023-04-15T02:56:43;7.40;;;4.65;;
20391;SDS011;10355;53.688;10.078;2023-04-15T02:59:26;9.35;;;5.07;;
20391;SDS011;10355;53.688;10.078;2023-04-15T03:02:08;8.23;;;4.88;;
20391;SDS011;10355;53.688;10.078;2023-04-15T03:04:53;8.43;;;4.97;;
20391;SDS011;10355;53.688;10.078;2023-04-15T03:07:36;8.65;;;5.20;;
20391;SDS011;10355;53.688;10.078;2023-04-15T03:10:19;9.77;;;5.55;;
20391;SDS011;10355;53.688;10.078;2023-04-15T03:13:02;8.63;;;4.80;;
20391;SDS011;10355;53.688;10.078;2023-04-15T03:15:45;7.80;;;5.00;;
20391;SDS011;10355;53.688;10.078;2023-04-15T03:18:28;8.95;;;5.10;;
20391;SDS011;10355;53.688;10.078;2023-04-15T03:21:16;9.05;;;5.55;;
20391;SDS011;10355;53.688;10.078;2023-04-15T03:24:01;10.93;;;5.68;;
20391;SDS011;10355;53.688;10.078;2023-04-15T03:26:43;10.05;;;5.68;;
20391;SDS011;10355;53.688;10.078;2023-04-15T03:29:29;10.43;;;5.50;;
20391;SDS011;10355;53.688;10.078;2023-04-15T03:32:13;12.02;;;6.20;;
20391;SDS011;10355;53.688;10.078;2023-04-15T03:34:55;11.63;;;6.40;;
20391;SDS011;10355;53.688;10.078;2023-04-15T03:37:39;10.27;;;5.50;;
20391;SDS011;10355;53.688;10.078;2023-04-15T03:40:22;12.13;;;6.28;;
20391;SDS011;10355;53.688;10.078;2023-04-15T03:43:05;10.85;;;6.43;;
20391;SDS011;10355;53.688;10.078;2023-04-15T03:45:47;12.68;;;6.88;;
20391;SDS011;10355;53.688;10.078;2023-04-15T03:48:30;12.30;;;6.80;;
20391;SDS011;10355;53.688;10.078;2023-04-15T03:51:13;13.13;;;6.65;;
20391;SDS011;10355;53.688;10.078;2023-04-15T03:53:57;10.77;;;6.80;;
20391;SDS011;10355;53.688;10.078;2023-04-15T03:56:39;11.25;;;6.82;;
20391;SDS011;10355;53.688;10.078;2023-04-15T03:59:22;11.40;;;6.75;;
20391;SDS011;10355;53.688;10.078;2023-04-15T04:02:05;11.30;;;6.25;;
20391;SDS011;10355;53.688;10.078;2023-04-15T04:04:48;12.68;;;7.18;;
20391;SDS011;10355;53.688;10.078;2023-04-15T04:07:31;13.02;;;6.97;;
20391;SDS011;10355;53.688;10.078;2023-04-15T04:10:15;13.07;;;6.97;;
20391;SDS011;10355;53.688;10.078;2023-04-15T04:12:58;12.93;;;6.85;;
20391;SDS011;10355;53.688;10.078;2023-04-15T04:15:40;15.25;;;7.70;;
20391;SDS011;10355;53.688;10.078;2023-04-15T04:18:23;11.43;;;6.90;;
20391;SDS011;10355;53.688;10.078;2023-04-15T04:21:06;15.50;;;7.95;;
20391;SDS011;10355;53.688;10.078;2023-04-15T04:23:48;11.32;;;6.78;;
20391;SDS011;10355;53.688;10.078;2023-04-15T04:26:33;13.13;;;7.20;;
20391;SDS011;10355;53.688;10.078;2023-04-15T04:29:16;13.77;;;8.43;;
20391;SDS011;10355;53.688;10.078;2023-04-15T04:31:58;14.27;;;8.80;;
20391;SDS011;10355;53.688;10.078;2023-04-15T04:34:41;15.43;;;9.18;;
20391;SDS011;10355;53.688;10.078;2023-04-15T04:37:23;14.68;;;8.60;;
20391;SDS011;10355;53.688;10.078;2023-04-15T04:40:07;15.57;;;8.93;;
20391;SDS011;10355;53.688;10.078;2023-04-15T04:42:52;17.23;;;9.40;;
20391;SDS011;10355;53.688;10.078;2023-04-15T04:45:34;18.05;;;9.95;;
20391;SDS011;10355;53.688;10.078;2023-04-15T04:48:17;18.10;;;9.60;;
20391;SDS011;10355;53.688;10.078;2023-04-15T04:51:00;18.08;;;10.00;;
20391;SDS011;10355;53.688;10.078;2023-04-15T04:53:42;17.35;;;9.63;;
20391;SDS011;10355;53.688;10.078;2023-04-15T04:56:25;18.45;;;10.18;;
20391;SDS011;10355;53.688;10.078;2023-04-15T04:59:09;17.35;;;9.93;;
20391;SDS011;10355;53.688;10.078;2023-04-15T05:01:52;20.75;;;10.18;;
20391;SDS011;10355;53.688;10.078;2023-04-15T05:04:35;18.25;;;10.27;;
20391;SDS011;10355;53.688;10.078;2023-04-15T05:07:17;18.55;;;10.30;;
20391;SDS011;10355;53.688;10.078;2023-04-15T05:10:01;17.13;;;9.57;;
20391;SDS011;10355;53.688;10.078;2023-04-15T05:12:43;15.65;;;9.38;;
20391;SDS011;10355;53.688;10.078;2023-04-15T05:15:27;18.42;;;9.88;;
20391;SDS011;10355;53.688;10.078;2023-04-15T05:18:10;16.92;;;9.43;;
20391;SDS011;10355;53.688;10.078;2023-04-15T05:20:53;17.52;;;9.93;;
20391;SDS011;10355;53.688;10.078;2023-04-15T05:23:35;18.23;;;10.18;;
20391;SDS011;10355;53.688;10.078;2023-04-15T05:26:18;18.95;;;10.23;;
20391;SDS011;10355;53.688;10.078;2023-04-15T05:29:02;18.27;;;10.00;;
20391;SDS011;10355;53.688;10.078;2023-04-15T05:31:46;15.80;;;9.77;;
20391;SDS011;10355;53.688;10.078;2023-04-15T05:34:28;16.80;;;9.90;;
20391;SDS011;10355;53.688;10.078;2023-04-15T05:37:11;17.08;;;9.27;;
20391;SDS011;10355;53.688;10.078;2023-04-15T05:39:53;17.75;;;9.57;;
20391;SDS011;10355;53.688;10.078;2023-04-15T05:42:37;16.00;;;9.20;;
20391;SDS011;10355;53.688;10.078;2023-04-15T05:45:19;14.85;;;8.68;;
20391;SDS011;10355;53.688;10.078;2023-04-15T05:48:03;16.80;;;9.30;;
20391;SDS011;10355;53.688;10.078;2023-04-15T05:50:46;17.38;;;10.07;;
20391;SDS011;10355;53.688;10.078;2023-04-15T05:53:29;17.98;;;9.52;;
20391;SDS011;10355;53.688;10.078;2023-04-15T05:56:12;16.65;;;9.50;;
20391;SDS011;10355;53.688;10.078;2023-04-15T05:58:54;19.33;;;9.55;;
20391;SDS011;10355;53.688;10.078;2023-04-15T06:01:37;19.25;;;10.55;;
20391;SDS011;10355;53.688;10.078;2023-04-15T06:04:21;17.65;;;9.88;;
20391;SDS011;10355;53.688;10.078;2023-04-15T06:07:04;16.95;;;9.75;;
20391;SDS011;10355;53.688;10.078;2023-04-15T06:09:47;19.88;;;10.50;;
20391;SDS011;10355;53.688;10.078;2023-04-15T06:12:30;22.60;;;10.85;;
20391;SDS011;10355;53.688;10.078;2023-04-15T06:15:12;20.25;;;10.75;;
20391;SDS011;10355;53.688;10.078;2023-04-15T06:17:55;23.63;;;11.85;;
20391;SDS011;10355;53.688;10.078;2023-04-15T06:20:39;20.77;;;11.75;;
20391;SDS011;10355;53.688;10.078;2023-04-15T06:23:22;22.45;;;12.65;;
20391;SDS011;10355;53.688;10.078;2023-04-15T06:26:07;21.23;;;11.45;;
20391;SDS011;10355;53.688;10.078;2023-04-15T06:28:49;22.10;;;12.35;;
20391;SDS011;10355;53.688;10.078;2023-04-15T06:31:32;21.80;;;11.77;;
20391;SDS011;10355;53.688;10.078;2023-04-15T06:34:15;21.67;;;11.40;;
20391;SDS011;10355;53.688;10.078;2023-04-15T06:36:59;19.90;;;12.00;;
20391;SDS011;10355;53.688;10.078;2023-04-15T06:39:43;22.73;;;12.45;;
20391;SDS011;10355;53.688;10.078;2023-04-15T06:42:26;20.55;;;11.75;;
20391;SDS011;10355;53.688;10.078;2023-04-15T06:45:09;23.33;;;12.77;;
20391;SDS011;10355;53.688;10.078;2023-04-15T06:47:52;24.02;;;11.80;;
20391;SDS011;10355;53.688;10.078;2023-04-15T06:50:35;21.73;;;11.80;;
20391;SDS011;10355;53.688;10.078;2023-04-15T06:53:19;21.95;;;12.30;;
20391;SDS011;10355;53.688;10.078;2023-04-15T06:56:02;26.20;;;13.32;;
20391;SDS011;10355;53.688;10.078;2023-04-15T06:58:45;25.85;;;12.50;;
20391;SDS011;10355;53.688;10.078;2023-04-15T07:01:27;24.23;;;13.40;;
20391;SDS011;10355;53.688;10.078;2023-04-15T07:04:10;22.77;;;12.77;;
20391;SDS011;10355;53.688;10.078;2023-04-15T07:06:53;29.70;;;13.93;;
20391;SDS011;10355;53.688;10.078;2023-04-15T07:09:38;26.75;;;13.80;;
20391;SDS011;10355;53.688;10.078;2023-04-15T07:12:21;23.52;;;13.02;;
20391;SDS011;10355;53.688;10.078;2023-04-15T07:15:04;25.52;;;13.63;;
20391;SDS011;10355;53.688;10.078;2023-04-15T07:17:47;26.52;;;14.23;;
20391;SDS011;10355;53.688;10.078;2023-04-15T07:20:29;28.85;;;14.50;;
20391;SDS011;10355;53.688;10.078;2023-04-15T07:23:12;28.73;;;14.82;;
20391;SDS011;10355;53.688;10.078;2023-04-15T07:25:56;25.00;;;13.52;;
20391;SDS011;10355;53.688;10.078;2023-04-15T07:28:39;28.38;;;14.57;;
20391;SDS011;10355;53.688;10.078;2023-04-15T07:31:23;28.10;;;14.73;;
20391;SDS011;10355;53.688;10.078;2023-04-15T07:34:06;27.33;;;14.20;;
20391;SDS011;10355;53.688;10.078;2023-04-15T07:36:48;27.92;;;14.10;;
20391;SDS011;10355;53.688;10.078;2023-04-15T07:39:32;27.42;;;14.00;;
20391;SDS011;10355;53.688;10.078;2023-04-15T07:42:16;27.08;;;15.02;;
20391;SDS011;10355;53.688;10.078;2023-04-15T07:44:58;27.83;;;13.55;;
20391;SDS011;10355;53.688;10.078;2023-04-15T07:47:41;25.95;;;13.75;;
20391;SDS011;10355;53.688;10.078;2023-04-15T07:50:24;27.52;;;14.35;;
20391;SDS011;10355;53.688;10.078;2023-04-15T07:53:07;28.70;;;14.80;;
20391;SDS011;10355;53.688;10.078;2023-04-15T07:55:50;26.45;;;14.10;;
20391;SDS011;10355;53.688;10.078;2023-04-15T07:58:34;30.75;;;15.27;;
20391;SDS011;10355;53.688;10.078;2023-04-15T08:01:17;27.50;;;14.43;;
20391;SDS011;10355;53.688;10.078;2023-04-15T08:04:00;26.60;;;14.07;;
20391;SDS011;10355;53.688;10.078;2023-04-15T08:06:43;25.92;;;13.60;;
20391;SDS011;10355;53.688;10.078;2023-04-15T08:09:28;25.60;;;13.55;;
20391;SDS011;10355;53.688;10.078;2023-04-15T08:12:10;27.90;;;14.82;;
20391;SDS011;10355;53.688;10.078;2023-04-15T08:14:55;25.65;;;14.05;;
20391;SDS011;10355;53.688;10.078;2023-04-15T08:17:38;25.95;;;14.38;;
20391;SDS011;10355;53.688;10.078;2023-04-15T08:20:20;26.02;;;14.45;;
20391;SDS011;10355;53.688;10.078;2023-04-15T08:23:03;30.30;;;14.35;;
20391;SDS011;10355;53.688;10.078;2023-04-15T08:25:46;26.40;;;13.57;;
20391;SDS011;10355;53.688;10.078;2023-04-15T08:28:29;28.35;;;13.85;;
20391;SDS011;10355;53.688;10.078;2023-04-15T08:31:14;25.45;;;14.10;;
20391;SDS011;10355;53.688;10.078;2023-04-15T08:33:57;24.42;;;13.80;;
20391;SDS011;10355;53.688;10.078;2023-04-15T08:36:41;25.20;;;14.27;;
20391;SDS011;10355;53.688;10.078;2023-04-15T08:39:24;27.35;;;14.32;;
20391;SDS011;10355;53.688;10.078;2023-04-15T08:42:09;28.77;;;14.77;;
20391;SDS011;10355;53.688;10.078;2023-04-15T08:44:52;26.60;;;14.43;;
20391;SDS011;10355;53.688;10.078;2023-04-15T08:47:37;27.02;;;14.30;;
20391;SDS011;10355;53.688;10.078;2023-04-15T08:50:22;28.13;;;15.20;;
20391;SDS011;10355;53.688;10.078;2023-04-15T08:53:06;28.00;;;15.55;;
20391;SDS011;10355;53.688;10.078;2023-04-15T08:55:50;32.65;;;15.15;;
20391;SDS011;10355;53.688;10.078;2023-04-15T08:58:34;31.05;;;16.50;;
20391;SDS011;10355;53.688;10.078;2023-04-15T09:01:17;32.70;;;15.18;;
20391;SDS011;10355;53.688;10.078;2023-04-15T09:04:01;29.55;;;15.80;;
20391;SDS011;10355;53.688;10.078;2023-04-15T09:06:44;31.60;;;15.30;;
20391;SDS011;10355;53.688;10.078;2023-04-15T09:09:26;30.67;;;15.80;;
20391;SDS011;10355;53.688;10.078;2023-04-15T09:12:10;26.85;;;15.15;;
20391;SDS011;10355;53.688;10.078;2023-04-15T09:14:52;27.35;;;15.27;;
20391;SDS011;10355;53.688;10.078;2023-04-15T09:17:36;29.38;;;15.52;;
20391;SDS011;10355;53.688;10.078;2023-04-15T09:20:24;31.70;;;15.15;;
20391;SDS011;10355;53.688;10.078;2023-04-15T09:23:10;28.98;;;15.07;;
20391;SDS011;10355;53.688;10.078;2023-04-15T09:25:53;29.95;;;14.93;;
20391;SDS011;10355;53.688;10.078;2023-04-15T09:28:40;27.65;;;14.88;;
20391;SDS011;10355;53.688;10.078;2023-04-15T09:31:25;31.42;;;14.90;;
20391;SDS011;10355;53.688;10.078;2023-04-15T09:34:11;25.65;;;13.60;;
20391;SDS011;10355;53.688;10.078;2023-04-15T09:36:55;26.02;;;14.70;;
20391;SDS011;10355;53.688;10.078;2023-04-15T09:39:44;29.35;;;14.05;;
20391;SDS011;10355;53.688;10.078;2023-04-15T09:42:28;26.23;;;13.82;;
20391;SDS011;10355;53.688;10.078;2023-04-15T09:45:11;24.65;;;13.02;;
20391;SDS011;10355;53.688;10.078;2023-04-15T09:47:54;26.10;;;13.68;;
20391;SDS011;10355;53.688;10.078;2023-04-15T09:50:39;26.30;;;13.73;;
20391;SDS011;10355;53.688;10.078;2023-04-15T09:53:24;26.17;;;13.70;;
20391;SDS011;10355;53.688;10.078;2023-04-15T09:56:07;22.73;;;12.32;;
20391;SDS011;10355;53.688;10.078;2023-04-15T09:58:55;26.02;;;13.38;;
20391;SDS011;10355;53.688;10.078;2023-04-15T10:01:37;23.63;;;12.93;;
20391;SDS011;10355;53.688;10.078;2023-04-15T10:04:22;24.60;;;13.30;;
20391;SDS011;10355;53.688;10.078;2023-04-15T10:07:05;25.48;;;13.13;;
20391;SDS011;10355;53.688;10.078;2023-04-15T10:09:50;21.95;;;12.57;;
20391;SDS011;10355;53.688;10.078;2023-04-15T10:12:33;25.77;;;13.68;;
20391;SDS011;10355;53.688;10.078;2023-04-15T10:15:17;25.08;;;13.35;;
20391;SDS011;10355;53.688;10.078;2023-04-15T10:18:00;24.83;;;12.52;;
20391;SDS011;10355;53.688;10.078;2023-04-15T10:20:46;23.70;;;12.88;;
20391;SDS011;10355;53.688;10.078;2023-04-15T10:23:30;21.90;;;11.90;;
20391;SDS011;10355;53.688;10.078;2023-04-15T10:26:15;21.35;;;10.63;;
20391;SDS011;10355;53.688;10.078;2023-04-15T10:28:58;17.85;;;10.93;;
20391;SDS011;10355;53.688;10.078;2023-04-15T10:31:42;18.23;;;10.57;;
20391;SDS011;10355;53.688;10.078;2023-04-15T10:34:25;17.15;;;10.10;;
20391;SDS011;10355;53.688;10.078;2023-04-15T10:37:08;13.30;;;9.07;;
20391;SDS011;10355;53.688;10.078;2023-04-15T10:39:51;16.83;;;9.25;;
20391;SDS011;10355;53.688;10.078;2023-04-15T10:42:35;17.60;;;9.65;;
20391;SDS011;10355;53.688;10.078;2023-04-15T10:45:19;20.55;;;9.80;;
20391;SDS011;10355;53.688;10.078;2023-04-15T10:48:02;17.00;;;9.00;;
20391;SDS011;10355;53.688;10.078;2023-04-15T10:50:54;15.80;;;8.57;;
20391;SDS011;10355;53.688;10.078;2023-04-15T10:53:37;15.98;;;9.13;;
20391;SDS011;10355;53.688;10.078;2023-04-15T10:56:23;14.00;;;8.60;;
20391;SDS011;10355;53.688;10.078;2023-04-15T10:59:07;13.30;;;8.73;;
20391;SDS011;10355;53.688;10.078;2023-04-15T11:01:50;12.57;;;7.78;;
20391;SDS011;10355;53.688;10.078;2023-04-15T11:04:53;12.63;;;7.53;;
20391;SDS011;10355;53.688;10.078;2023-04-15T11:07:37;13.93;;;6.80;;
20391;SDS011;10355;53.688;10.078;2023-04-15T11:13:46;11.50;;;7.28;;
20391;SDS011;10355;53.688;10.078;2023-04-15T11:16:30;13.07;;;7.85;;
20391;SDS011;10355;53.688;10.078;2023-04-15T11:19:13;10.35;;;6.93;;
20391;SDS011;10355;53.688;10.078;2023-04-15T11:21:56;10.05;;;6.53;;
20391;SDS011;10355;53.688;10.078;2023-04-15T11:24:45;11.93;;;6.38;;
20391;SDS011;10355;53.688;10.078;2023-04-15T11:27:29;10.10;;;6.32;;
20391;SDS011;10355;53.688;10.078;2023-04-15T11:30:17;11.40;;;6.57;;
20391;SDS011;10355;53.688;10.078;2023-04-15T11:33:02;9.90;;;6.35;;
20391;SDS011;10355;53.688;10.078;2023-04-15T11:35:45;10.38;;;6.72;;
20391;SDS011;10355;53.688;10.078;2023-04-15T11:38:27;9.50;;;6.18;;
20391;SDS011;10355;53.688;10.078;2023-04-15T11:41:10;10.13;;;6.10;;
20391;SDS011;10355;53.688;10.078;2023-04-15T11:43:53;10.25;;;5.88;;
20391;SDS011;10355;53.688;10.078;2023-04-15T11:46:35;12.48;;;6.93;;
20391;SDS011;10355;53.688;10.078;2023-04-15T11:49:29;11.32;;;7.00;;
20391;SDS011;10355;53.688;10.078;2023-04-15T11:52:14;10.75;;;6.45;;
20391;SDS011;10355;53.688;10.078;2023-04-15T11:55:01;12.20;;;6.72;;
20391;SDS011;10355;53.688;10.078;2023-04-15T11:57:44;10.20;;;6.57;;
20391;SDS011;10355;53.688;10.078;2023-04-15T12:00:27;12.18;;;6.80;;
20391;SDS011;10355;53.688;10.078;2023-04-15T12:03:16;10.20;;;7.10;;
20391;SDS011;10355;53.688;10.078;2023-04-15T12:06:08;11.20;;;6.85;;
20391;SDS011;10355;53.688;10.078;2023-04-15T12:08:52;11.55;;;7.25;;
20391;SDS011;10355;53.688;10.078;2023-04-15T12:11:38;11.70;;;6.97;;
20391;SDS011;10355;53.688;10.078;2023-04-15T12:14:23;11.32;;;7.05;;
20391;SDS011;10355;53.688;10.078;2023-04-15T12:17:06;11.07;;;7.15;;
20391;SDS011;10355;53.688;10.078;2023-04-15T12:19:54;11.32;;;7.38;;
20391;SDS011;10355;53.688;10.078;2023-04-15T12:22:38;11.80;;;7.75;;
20391;SDS011;10355;53.688;10.078;2023-04-15T12:25:31;14.95;;;7.50;;
20391;SDS011;10355;53.688;10.078;2023-04-15T12:28:16;13.18;;;7.65;;
20391;SDS011;10355;53.688;10.078;2023-04-15T12:30:59;13.30;;;7.65;;
20391;SDS011;10355;53.688;10.078;2023-04-15T12:33:46;12.05;;;7.70;;
20391;SDS011;10355;53.688;10.078;2023-04-15T12:36:29;15.60;;;7.43;;
20391;SDS011;10355;53.688;10.078;2023-04-15T12:39:17;12.02;;;7.45;;
20391;SDS011;10355;53.688;10.078;2023-04-15T12:42:03;10.52;;;7.03;;
20391;SDS011;10355;53.688;10.078;2023-04-15T12:44:46;11.82;;;7.40;;
20391;SDS011;10355;53.688;10.078;2023-04-15T12:47:29;10.65;;;6.90;;
20391;SDS011;10355;53.688;10.078;2023-04-15T12:50:11;11.40;;;7.07;;
20391;SDS011;10355;53.688;10.078;2023-04-15T12:52:54;12.52;;;7.07;;
20391;SDS011;10355;53.688;10.078;2023-04-15T12:55:38;10.82;;;7.03;;
20391;SDS011;10355;53.688;10.078;2023-04-15T12:58:21;13.35;;;6.95;;
20391;SDS011;10355;53.688;10.078;2023-04-15T13:01:04;11.63;;;6.78;;
20391;SDS011;10355;53.688;10.078;2023-04-15T13:03:46;10.40;;;6.90;;
20391;SDS011;10355;53.688;10.078;2023-04-15T13:06:30;9.88;;;6.28;;
20391;SDS011;10355;53.688;10.078;2023-04-15T13:09:13;10.20;;;5.97;;
20391;SDS011;10355;53.688;10.078;2023-04-15T13:11:57;11.85;;;7.30;;
20391;SDS011;10355;53.688;10.078;2023-04-15T13:14:40;11.48;;;6.38;;
20391;SDS011;10355;53.688;10.078;2023-04-15T13:17:23;9.18;;;6.35;;
20391;SDS011;10355;53.688;10.078;2023-04-15T13:20:06;11.07;;;6.53;;
20391;SDS011;10355;53.688;10.078;2023-04-15T13:22:49;8.32;;;5.82;;
20391;SDS011;10355;53.688;10.078;2023-04-15T13:25:33;9.30;;;6.13;;
20391;SDS011;10355;53.688;10.078;2023-04-15T13:28:17;9.43;;;5.45;;
20391;SDS011;10355;53.688;10.078;2023-04-15T13:31:00;8.10;;;5.20;;
20391;SDS011;10355;53.688;10.078;2023-04-15T13:33:43;8.30;;;4.72;;
20391;SDS011;10355;53.688;10.078;2023-04-15T13:36:25;8.05;;;5.07;;
20391;SDS011;10355;53.688;10.078;2023-04-15T13:39:08;7.90;;;5.18;;
20391;SDS011;10355;53.688;10.078;2023-04-15T13:41:51;7.78;;;5.25;;
20391;SDS011;10355;53.688;10.078;2023-04-15T13:44:35;9.70;;;5.40;;
20391;SDS011;10355;53.688;10.078;2023-04-15T13:47:18;8.30;;;5.22;;
20391;SDS011;10355;53.688;10.078;2023-04-15T13:50:01;8.40;;;5.35;;
20391;SDS011;10355;53.688;10.078;2023-04-15T13:52:44;10.73;;;5.75;;
20391;SDS011;10355;53.688;10.078;2023-04-15T13:55:27;9.25;;;6.13;;
20391;SDS011;10355;53.688;10.078;2023-04-15T13:58:10;8.38;;;5.35;;
20391;SDS011;10355;53.688;10.078;2023-04-15T14:00:54;7.60;;;5.07;;
20391;SDS011;10355;53.688;10.078;2023-04-15T14:03:37;10.10;;;5.18;;
20391;SDS011;10355;53.688;10.078;2023-04-15T14:06:20;8.50;;;5.47;;
20391;SDS011;10355;53.688;10.078;2023-04-15T14:09:03;9.40;;;5.30;;
20391;SDS011;10355;53.688;10.078;2023-04-15T14:11:46;9.75;;;5.70;;
20391;SDS011;10355;53.688;10.078;2023-04-15T14:14:28;8.68;;;5.93;;
20391;SDS011;10355;53.688;10.078;2023-04-15T14:17:12;8.40;;;5.68;;
20391;SDS011;10355;53.688;10.078;2023-04-15T14:19:55;8.02;;;5.88;;
20391;SDS011;10355;53.688;10.078;2023-04-15T14:22:38;9.88;;;5.93;;
20391;SDS011;10355;53.688;10.078;2023-04-15T14:25:21;7.65;;;5.22;;
20391;SDS011;10355;53.688;10.078;2023-04-15T14:28:14;9.48;;;5.95;;
20391;SDS011;10355;53.688;10.078;2023-04-15T14:30:57;9.27;;;5.28;;
20391;SDS011;10355;53.688;10.078;2023-04-15T14:33:41;11.20;;;6.20;;
20391;SDS011;10355;53.688;10.078;2023-04-15T14:36:23;8.40;;;5.55;;
20391;SDS011;10355;53.688;10.078;2023-04-15T14:39:07;8.85;;;6.00;;
20391;SDS011;10355;53.688;10.078;2023-04-15T14:41:50;9.75;;;6.32;;
20391;SDS011;10355;53.688;10.078;2023-04-15T14:44:33;8.50;;;5.70;;
20391;SDS011;10355;53.688;10.078;2023-04-15T14:47:15;9.07;;;5.80;;
20391;SDS011;10355;53.688;10.078;2023-04-15T14:50:00;8.20;;;5.32;;
20391;SDS011;10355;53.688;10.078;2023-04-15T14:52:43;8.60;;;5.32;;
20391;SDS011;10355;53.688;10.078;2023-04-15T14:55:25;8.88;;;5.93;;
20391;SDS011;10355;53.688;10.078;2023-04-15T14:58:08;36.22;;;8.52;;
20391;SDS011;10355;53.688;10.078;2023-04-15T15:00:51;11.48;;;5.80;;
20391;SDS011;10355;53.688;10.078;2023-04-15T15:03:33;9.52;;;5.43;;
20391;SDS011;10355;53.688;10.078;2023-04-15T15:06:18;8.98;;;6.30;;
20391;SDS011;10355;53.688;10.078;2023-04-15T15:09:01;9.10;;;6.10;;
20391;SDS011;10355;53.688;10.078;2023-04-15T15:11:44;8.75;;;5.53;;
20391;SDS011;10355;53.688;10.078;2023-04-15T15:14:27;8.65;;;6.03;;
20391;SDS011;10355;53.688;10.078;2023-04-15T15:17:10;9.93;;;6.47;;
20391;SDS011;10355;53.688;10.078;2023-04-15T15:19:55;11.02;;;6.80;;
20391;SDS011;10355;53.688;10.078;2023-04-15T15:22:39;9.35;;;6.40;;
20391;SDS011;10355;53.688;10.078;2023-04-15T15:25:22;10.18;;;6.22;;
20391;SDS011;10355;53.688;10.078;2023-04-15T15:28:05;11.57;;;6.47;;
20391;SDS011;10355;53.688;10.078;2023-04-15T15:30:48;12.77;;;6.95;;
20391;SDS011;10355;53.688;10.078;2023-04-15T15:33:31;11.95;;;6.10;;
20391;SDS011;10355;53.688;10.078;2023-04-15T15:36:13;11.38;;;6.70;;
20391;SDS011;10355;53.688;10.078;2023-04-15T15:38:58;7.78;;;5.38;;
20391;SDS011;10355;53.688;10.078;2023-04-15T15:41:41;9.75;;;5.80;;
20391;SDS011;10355;53.688;10.078;2023-04-15T15:44:25;8.68;;;5.93;;
20391;SDS011;10355;53.688;10.078;2023-04-15T15:47:08;8.32;;;5.68;;
20391;SDS011;10355;53.688;10.078;2023-04-15T15:49:51;8.85;;;5.68;;
20391;SDS011;10355;53.688;10.078;2023-04-15T15:52:34;9.00;;;5.95;;
20391;SDS011;10355;53.688;10.078;2023-04-15T15:55:18;8.98;;;6.53;;
20391;SDS011;10355;53.688;10.078;2023-04-15T15:58:00;8.60;;;6.15;;
20391;SDS011;10355;53.688;10.078;2023-04-15T16:00:43;10.40;;;6.63;;